Time;durP1;ratioP1;P1;durP2;ratioP2;P2;SDS_P1;SDS_P2;PMS_P1;PMS_P2;Temp;Humidity;BMP_temperature;BMP_pressure;BME280_temperature;BME280_humidity;BME280_pressure;Samples;Min_cycle;Max_cycle;Signal;HPM_P1;HPM_P2
2023/06/01 00:01:12;;;;;;;;;;;;;;;;;;5004385;28;19919;-74
2023/06/01 00:03:39;;;;;;;;;;;;;;;;;;5010223;28;19917;-73
2023/06/01 00:06:06;;;;;;;;;;;;;;;;;;5009673;28;19919;-73
2023/06/01 00:08:32;;;;;;;;;;;;;;;;;;5005456;28;20364;-73
2023/06/01 00:10:59;;;;;;;;;;;;;;;;;;5008777;28;19920;-74
2023/06/01 00:13:25;;;;;;;;;;;;;;;;;;5003347;28;20475;-74
2023/06/01 00:15:51;;;;;;;;;;;;;;;;;;5008632;28;20035;-73
2023/06/01 00:18:17;;;;;;;;;;;;;;;;;;5003581;28;19920;-74
2023/06/01 00:20:44;;;;;;;;;;;;;;;;;;5007942;28;19982;-74
2023/06/01 00:23:10;;;;;;;;;;;;;;;;;;5003697;28;20447;-74
2023/06/01 00:25:36;;;;;;;;;;;;;;;;;;5007186;28;19917;-74
2023/06/01 00:28:02;;;;;;;;;;;;;;;;;;5004419;28;19923;-74
2023/06/01 00:30:28;;;;;;;;;;;;;;;;;;5002641;28;20722;-73
2023/06/01 00:32:55;;;;;;;;;;;;;;;;;;5004646;28;20643;-73
2023/06/01 00:35:21;;;;;;;;;;;;;;;;;;5003256;28;19920;-73
2023/06/01 00:37:47;;;;;;;;;;;;;;;;;;5007892;28;19909;-73
2023/06/01 00:40:13;;;;;;;;;;;;;;;;;;4999620;28;20320;-74
2023/06/01 00:42:39;;;;;;;;;;;;;;;;;;5006264;28;20032;-75
2023/06/01 00:45:05;;;;;;;;;;;;;;;;;;5008070;28;19912;-74
2023/06/01 00:47:31;;;;;;;;;;;;;;;;;;5005603;28;20379;-74
2023/06/01 00:49:57;;;;;;;;;;;;;;;;;;5007873;28;19917;-72
2023/06/01 00:52:23;;;;;;;;;;;;;;;;;;5005581;28;19916;-74
2023/06/01 00:54:49;;;;;;;;;;;;;;;;;;5007209;28;20393;-74
2023/06/01 00:57:15;;;;;;;;;;;;;;;;;;5001414;28;19913;-71
2023/06/01 00:59:41;;;;;;;;;;;;;;;;;;5008362;28;19996;-73
2023/06/01 01:02:08;;;;;;;;;;;;;;;;;;5005046;28;20016;-73
2023/06/01 01:04:34;;;;;;;;;;;;;;;;;;5005731;28;20538;-72
2023/06/01 01:07:00;;;;;;;;;;;;;;;;;;5009402;28;20571;-73
2023/06/01 01:09:26;;;;;;;;;;;;;;;;;;5006236;28;19917;-73
2023/06/01 01:11:52;;;;;;;;;;;;;;;;;;5006513;28;20722;-73
2023/06/01 01:14:18;;;;;;;;;;;;;;;;;;5005216;28;19999;-73
2023/06/01 01:16:47;;;;;;;;;;;;;;;;;;5004195;28;20170;-73
2023/06/01 01:19:16;;;;;;;;;;;;;;;;;;5004509;28;19925;-73
2023/06/01 01:21:42;;;;;;;;;;;;;;;;;;5007669;28;19912;-73
2023/06/01 01:24:08;;;;;;;;;;;;;;;;;;5004878;28;19924;-73
2023/06/01 01:26:34;;;;;;;;;;;;;;;;;;5006681;28;19920;-74
2023/06/01 01:29:00;;;;;;;;;;;;;;;;;;5007950;28;20324;-72
2023/06/01 01:31:26;;;;;;;;;;;;;;;;;;5006184;28;20330;-73
2023/06/01 01:33:52;;;;;;;;;;;;;;;;;;5009126;28;19924;-72
2023/06/01 01:36:18;;;;;;;;;;;;;;;;;;5009616;28;20369;-72
2023/06/01 01:38:44;;;;;;;;;;;;;;;;;;5012933;28;19917;-73
2023/06/01 01:41:10;;;;;;;;;;;;;;;;;;5008878;28;19920;-72
2023/06/01 01:43:36;;;;;;;;;;;;;;;;;;5012908;28;19917;-72
2023/06/01 01:46:02;;;;;;;;;;;;;;;;;;5008154;28;19964;-72
2023/06/01 01:48:28;;;;;;;;;;;;;;;;;;5009244;28;20476;-73
2023/06/01 01:50:54;;;;;;;;;;;;;;;;;;5012966;28;20393;-72
2023/06/01 01:53:20;;;;;;;;;;;;;;;;;;5010437;28;20748;-72
2023/06/01 01:55:46;;;;;;;;;;;;;;;;;;5011709;28;20262;-72
2023/06/01 01:58:12;;;;;;;;;;;;;;;;;;5004512;28;19916;-72
2023/06/01 02:00:38;;;;;;;;;;;;;;;;;;5009427;28;20473;-73
2023/06/01 02:03:04;;;;;;;;;;;;;;;;;;5009946;28;19964;-73
2023/06/01 02:05:30;;;;;;;;;;;;;;;;;;5007385;28;19986;-72
2023/06/01 02:07:56;;;;;;;;;;;;;;;;;;5010894;28;19913;-73
2023/06/01 02:10:22;;;;;;;;;;;;;;;;;;5010003;28;20379;-73
2023/06/01 02:12:48;;;;;;;;;;;;;;;;;;5009270;28;19917;-73
2023/06/01 02:15:14;;;;;;;;;;;;;;;;;;5007332;28;20557;-73
2023/06/01 02:17:40;;;;;;;;;;;;;;;;;;5010099;28;19921;-73
2023/06/01 02:20:06;;;;;;;;;;;;;;;;;;5008614;28;19921;-72
2023/06/01 02:22:32;;;;;;;;;;;;;;;;;;5007654;28;19920;-73
2023/06/01 02:24:58;;;;;;;;;;;;;;;;;;5010452;28;19913;-72
2023/06/01 02:27:25;;;;;;;;;;;;;;;;;;5007150;28;19920;-73
2023/06/01 02:29:51;;;;;;;;;;;;;;;;;;5009333;28;20379;-73
2023/06/01 02:32:17;;;;;;;;;;;;;;;;;;5006481;28;19927;-73
2023/06/01 02:34:43;;;;;;;;;;;;;;;;;;5009517;28;20460;-75
2023/06/01 02:37:09;;;;;;;;;;;;;;;;;;5008441;28;19913;-73
2023/06/01 02:39:35;;;;;;;;;;;;;;;;;;5010777;28;20197;-73
2023/06/01 02:42:01;;;;;;;;;;;;;;;;;;5009791;28;19917;-72
2023/06/01 02:44:27;;;;;;;;;;;;;;;;;;5005110;28;21590;-73
2023/06/01 02:46:53;;;;;;;;;;;;;;;;;;5008608;28;19913;-73
2023/06/01 02:49:19;;;;;;;;;;;;;;;;;;5004613;28;19916;-73
2023/06/01 02:51:45;;;;;;;;;;;;;;;;;;5006234;28;19917;-73
2023/06/01 02:54:11;;;;;;;;;;;;;;;;;;5005842;28;20626;-73
2023/06/01 02:56:37;;;;;;;;;;;;;;;;;;5010417;28;20000;-73
2023/06/01 02:59:03;;;;;;;;;;;;;;;;;;5006887;28;19913;-72
2023/06/01 03:01:35;;;;;;;;;;;;;;;;;;5004852;28;20454;-72
2023/06/01 03:04:03;;;;;;;;;;;;;;;;;;5008937;28;19972;-73
2023/06/01 03:06:31;;;;;;;;;;;;;;;;;;5005922;28;19913;-72
2023/06/01 03:08:57;;;;;;;;;;;;;;;;;;5008247;28;19948;-75
2023/06/01 03:11:23;;;;;;;;;;;;;;;;;;5005834;28;20015;-72
2023/06/01 03:13:50;;;;;;;;;;;;;;;;;;5007722;28;19916;-73
2023/06/01 03:16:16;;;;;;;;;;;;;;;;;;5005089;28;19912;-73
2023/06/01 03:18:42;;;;;;;;;;;;;;;;;;5008515;28;19932;-72
2023/06/01 03:21:08;;;;;;;;;;;;;;;;;;5002426;28;19965;-72
2023/06/01 03:23:34;;;;;;;;;;;;;;;;;;5005328;28;19913;-74
2023/06/01 03:26:03;;;;;;;;;;;;;;;;;;5006505;28;20613;-74
2023/06/01 03:28:29;;;;;;;;;;;;;;;;;;5006082;28;19983;-74
2023/06/01 03:30:56;;;;;;;;;;;;;;;;;;5008947;28;20128;-74
2023/06/01 03:33:22;;;;;;;;;;;;;;;;;;5002466;28;19928;-74
2023/06/01 03:35:49;;;;;;;;;;;;;;;;;;5007305;28;20379;-74
2023/06/01 03:38:15;;;;;;;;;;;;;;;;;;5006634;28;20268;-75
2023/06/01 03:40:41;;;;;;;;;;;;;;;;;;5008344;28;20348;-72
2023/06/01 03:43:07;;;;;;;;;;;;;;;;;;5007488;28;20318;-73
2023/06/01 03:45:33;;;;;;;;;;;;;;;;;;5005487;28;19925;-73
2023/06/01 03:47:59;;;;;;;;;;;;;;;;;;5006889;28;20353;-76
2023/06/01 03:50:25;;;;;;;;;;;;;;;;;;5006042;28;20299;-74
2023/06/01 03:52:51;;;;;;;;;;;;;;;;;;5006614;28;19917;-74
2023/06/01 03:55:17;;;;;;;;;;;;;;;;;;5000831;28;20101;-73
2023/06/01 03:57:43;;;;;;;;;;;;;;;;;;5004593;28;19913;-73
2023/06/01 04:00:17;;;;;;;;;;;;;;;;;;5001586;28;19913;-73
2023/06/01 04:02:43;;;;;;;;;;;;;;;;;;5007112;28;20228;-73
2023/06/01 04:05:14;;;;;;;;;;;;;;;;;;5004025;28;20375;-74
2023/06/01 04:07:40;;;;;;;;;;;;;;;;;;5005643;28;20180;-74
2023/06/01 04:10:06;;;;;;;;;;;;;;;;;;5008844;28;20631;-74
2023/06/01 04:12:32;;;;;;;;;;;;;;;;;;5002430;28;20738;-74
2023/06/01 04:14:58;;;;;;;;;;;;;;;;;;5006140;28;19913;-73
2023/06/01 04:17:24;;;;;;;;;;;;;;;;;;5006498;28;20339;-75
2023/06/01 04:19:50;;;;;;;;;;;;;;;;;;5007267;28;19917;-74
2023/06/01 04:22:16;;;;;;;;;;;;;;;;;;5001158;28;20362;-75
2023/06/01 04:24:42;;;;;;;;;;;;;;;;;;5009406;28;19917;-73
2023/06/01 04:27:08;;;;;;;;;;;;;;;;;;5001778;28;19946;-73
2023/06/01 04:29:34;;;;;;;;;;;;;;;;;;5011408;28;20324;-73
2023/06/01 04:32:00;;;;;;;;;;;;;;;;;;5008186;28;20266;-74
2023/06/01 04:34:26;;;;;;;;;;;;;;;;;;5003020;28;20273;-73
2023/06/01 04:36:52;;;;;;;;;;;;;;;;;;5005348;28;19940;-73
2023/06/01 04:39:18;;;;;;;;;;;;;;;;;;5003904;28;20458;-73
2023/06/01 04:41:44;;;;;;;;;;;;;;;;;;5008347;28;19919;-73
2023/06/01 04:44:12;;;;;;;;;;;;;;;;;;5004091;28;19916;-74
2023/06/01 04:46:39;;;;;;;;;;;;;;;;;;5003159;28;19912;-74
2023/06/01 04:49:05;;;;;;;;;;;;;;;;;;5003957;28;20337;-73
2023/06/01 04:51:32;;;;;;;;;;;;;;;;;;5008677;28;19920;-74
2023/06/01 04:53:58;;;;;;;;;;;;;;;;;;5007588;28;20383;-72
2023/06/01 04:56:26;;;;;;;;;;;;;;;;;;5004829;28;20272;-73
2023/06/01 04:58:52;;;;;;;;;;;;;;;;;;5004982;28;20387;-74
2023/06/01 05:01:18;;;;;;;;;;;;;;;;;;5004272;28;21024;-74
2023/06/01 05:03:45;;;;;;;;;;;;;;;;;;5006015;28;19913;-74
2023/06/01 05:06:11;;;;;;;;;;;;;;;;;;5002818;28;20521;-73
2023/06/01 05:08:37;;;;;;;;;;;;;;;;;;5005811;28;20022;-73
2023/06/01 05:11:03;;;;;;;;;;;;;;;;;;5005188;28;20341;-74
2023/06/01 05:13:30;;;;;;;;;;;;;;;;;;5004316;28;19949;-73
2023/06/01 05:15:56;;;;;;;;;;;;;;;;;;5007421;28;19923;-73
2023/06/01 05:18:22;;;;;;;;;;;;;;;;;;5003997;28;19920;-74
2023/06/01 05:20:47;;;;;;;;;;;;;;;;;;5006267;28;20232;-71
2023/06/01 05:23:13;;;;;;;;;;;;;;;;;;5002538;28;20469;-74
2023/06/01 05:25:39;;;;;;;;;;;;;;;;;;5003874;28;19917;-73
2023/06/01 05:28:06;;;;;;;;;;;;;;;;;;5007483;28;19921;-74
2023/06/01 05:30:32;;;;;;;;;;;;;;;;;;5000068;28;20418;-74
2023/06/01 05:32:58;;;;;;;;;;;;;;;;;;5003932;28;19928;-74
2023/06/01 05:35:24;;;;;;;;;;;;;;;;;;5003278;28;20296;-74
2023/06/01 05:37:50;;;;;;;;;;;;;;;;;;5003023;28;19918;-75
2023/06/01 05:40:16;;;;;;;;;;;;;;;;;;4999721;28;19913;-76
2023/06/01 05:42:42;;;;;;;;;;;;;;;;;;5006812;28;19966;-75
2023/06/01 05:45:08;;;;;;;;;;;;;;;;;;5001694;28;20011;-74
2023/06/01 05:47:34;;;;;;;;;;;;;;;;;;5006777;28;20128;-75
2023/06/01 05:50:00;;;;;;;;;;;;;;;;;;5007045;28;20541;-74
2023/06/01 05:52:26;;;;;;;;;;;;;;;;;;5002856;28;20261;-74
2023/06/01 05:54:53;;;;;;;;;;;;;;;;;;5001822;28;19939;-74
2023/06/01 05:57:19;;;;;;;;;;;;;;;;;;5003565;28;20687;-74
2023/06/01 05:59:46;;;;;;;;;;;;;;;;;;5006431;28;19917;-74
2023/06/01 06:02:11;;;;;;;;;;;;;;;;;;5002661;28;19916;-74
2023/06/01 06:04:37;;;;;;;;;;;;;;;;;;5005767;28;20440;-74
2023/06/01 06:07:03;;;;;;;;;;;;;;;;;;5004158;28;19912;-74
2023/06/01 06:09:30;;;;;;;;;;;;;;;;;;5001471;28;20031;-74
2023/06/01 06:11:55;;;;;;;;;;;;;;;;;;5004237;28;20434;-74
2023/06/01 06:14:21;;;;;;;;;;;;;;;;;;5002674;28;19919;-74
2023/06/01 06:16:47;;;;;;;;;;;;;;;;;;5006193;28;20031;-75
2023/06/01 06:19:15;;;;;;;;;;;;;;;;;;5007243;28;19921;-75
2023/06/01 06:21:41;;;;;;;;;;;;;;;;;;5013002;28;19978;-74
2023/06/01 06:24:07;;;;;;;;;;;;;;;;;;5008691;28;20188;-75
2023/06/01 06:26:33;;;;;;;;;;;;;;;;;;5012605;28;20762;-75
2023/06/01 06:28:59;;;;;;;;;;;;;;;;;;5012795;28;20283;-73
2023/06/01 06:31:25;;;;;;;;;;;;;;;;;;5006535;28;19935;-74
2023/06/01 06:33:52;;;;;;;;;;;;;;;;;;5007670;28;19925;-73
2023/06/01 06:36:18;;;;;;;;;;;;;;;;;;5003658;28;19920;-74
2023/06/01 06:38:44;;;;;;;;;;;;;;;;;;5007264;28;20451;-74
2023/06/01 06:41:10;;;;;;;;;;;;;;;;;;5001919;28;20090;-74
2023/06/01 06:43:36;;;;;;;;;;;;;;;;;;5009823;28;20355;-74
2023/06/01 06:46:02;;;;;;;;;;;;;;;;;;5006585;28;19916;-73
2023/06/01 06:48:28;;;;;;;;;;;;;;;;;;5001635;28;20444;-74
2023/06/01 06:50:54;;;;;;;;;;;;;;;;;;5008378;28;20471;-73
2023/06/01 06:53:19;;;;;;;;;;;;;;;;;;5005006;28;19916;-73
2023/06/01 06:55:46;;;;;;;;;;;;;;;;;;5011170;28;20053;-74
2023/06/01 06:58:13;;;;;;;;;;;;;;;;;;5006501;28;19916;-74
2023/06/01 07:00:39;;;;;;;;;;;;;;;;;;5008363;28;19935;-75
2023/06/01 07:03:06;;;;;;;;;;;;;;;;;;5008175;28;20435;-74
2023/06/01 07:05:32;;;;;;;;;;;;;;;;;;5002771;28;19916;-74
2023/06/01 07:07:58;;;;;;;;;;;;;;;;;;5009089;28;19909;-74
2023/06/01 07:10:25;;;;;;;;;;;;;;;;;;5005016;28;19963;-74
2023/06/01 07:12:51;;;;;;;;;;;;;;;;;;5007132;28;20415;-74
2023/06/01 07:15:17;;;;;;;;;;;;;;;;;;5002758;28;19920;-73
2023/06/01 07:17:43;;;;;;;;;;;;;;;;;;5002731;28;19986;-73
2023/06/01 07:20:11;;;;;;;;;;;;;;;;;;5003884;28;20426;-74
2023/06/01 07:22:37;;;;;;;;;;;;;;;;;;5006704;28;19943;-73
2023/06/01 07:25:03;;;;;;;;;;;;;;;;;;5010482;28;19959;-74
2023/06/01 07:27:29;;;;;;;;;;;;;;;;;;5005176;28;19936;-74
2023/06/01 07:29:56;;;;;;;;;;;;;;;;;;5004457;28;20003;-73
2023/06/01 07:32:22;;;;;;;;;;;;;;;;;;5003524;28;20773;-74
2023/06/01 07:34:47;;;;;;;;;;;;;;;;;;5005683;28;20666;-74
2023/06/01 07:37:14;;;;;;;;;;;;;;;;;;5004154;28;19913;-74
2023/06/01 07:39:40;;;;;;;;;;;;;;;;;;5007725;28;20319;-74
2023/06/01 07:42:06;;;;;;;;;;;;;;;;;;5005690;28;19920;-75
2023/06/01 07:44:32;;;;;;;;;;;;;;;;;;5005026;28;19916;-73
2023/06/01 07:46:58;;;;;;;;;;;;;;;;;;5008280;28;19917;-74
2023/06/01 07:49:24;;;;;;;;;;;;;;;;;;5004021;28;19916;-74
2023/06/01 07:51:52;;;;;;;;;;;;;;;;;;5005055;28;20464;-74
2023/06/01 07:54:18;;;;;;;;;;;;;;;;;;5004462;28;19919;-73
2023/06/01 07:56:44;;;;;;;;;;;;;;;;;;5010257;28;19923;-74
2023/06/01 07:59:10;;;;;;;;;;;;;;;;;;5002334;28;20198;-74
2023/06/01 08:01:36;;;;;;;;;;;;;;;;;;5002861;28;20510;-74
2023/06/01 08:04:02;;;;;;;;;;;;;;;;;;5005112;28;20494;-74
2023/06/01 08:06:28;;;;;;;;;;;;;;;;;;5004818;28;20509;-74
2023/06/01 08:08:54;;;;;;;;;;;;;;;;;;5007942;28;19917;-74
2023/06/01 08:11:23;;;;;;;;;;;;;;;;;;5002756;28;19913;-74
2023/06/01 08:13:49;;;;;;;;;;;;;;;;;;5003692;28;19923;-73
2023/06/01 08:16:15;;;;;;;;;;;;;;;;;;5000913;28;20124;-74
2023/06/01 08:18:41;;;;;;;;;;;;;;;;;;5002560;28;19920;-74
2023/06/01 08:21:10;;;;;;;;;;;;;;;;;;5004426;28;20339;-74
2023/06/01 08:23:36;;;;;;;;;;;;;;;;;;5006390;28;20017;-75
2023/06/01 08:26:02;;;;;;;;;;;;;;;;;;5006877;28;19917;-74
2023/06/01 08:28:28;;;;;;;;;;;;;;;;;;5002701;28;19917;-74
2023/06/01 08:30:54;;;;;;;;;;;;;;;;;;5008206;28;19913;-74
2023/06/01 08:33:20;;;;;;;;;;;;;;;;;;5001327;28;19924;-74
2023/06/01 08:35:46;;;;;;;;;;;;;;;;;;5008155;28;19919;-74
2023/06/01 08:38:12;;;;;;;;;;;;;;;;;;5002707;28;20373;-74
2023/06/01 08:40:40;;;;;;;;;;;;;;;;;;5005467;28;19916;-74
2023/06/01 08:43:06;;;;;;;;;;;;;;;;;;5006042;28;19953;-74
2023/06/01 08:45:32;;;;;;;;;;;;;;;;;;5002239;28;19964;-74
2023/06/01 08:47:58;;;;;;;;;;;;;;;;;;5007102;28;20555;-74
2023/06/01 08:50:24;;;;;;;;;;;;;;;;;;5006356;28;19916;-74
2023/06/01 08:52:50;;;;;;;;;;;;;;;;;;5005047;28;20362;-74
2023/06/01 08:55:16;;;;;;;;;;;;;;;;;;5002628;28;20356;-74
2023/06/01 08:57:42;;;;;;;;;;;;;;;;;;5008963;28;19924;-74
2023/06/01 09:00:08;;;;;;;;;;;;;;;;;;5002735;28;20580;-74
2023/06/01 09:02:34;;;;;;;;;;;;;;;;;;5005365;28;20009;-75
2023/06/01 09:05:00;;;;;;;;;;;;;;;;;;5009793;28;20503;-74
2023/06/01 09:07:26;;;;;;;;;;;;;;;;;;5005488;28;19956;-74
2023/06/01 09:09:52;;;;;;;;;;;;;;;;;;5006810;28;19924;-75
2023/06/01 09:12:18;;;;;;;;;;;;;;;;;;5006412;28;19916;-74
2023/06/01 09:14:44;;;;;;;;;;;;;;;;;;5008351;28;20236;-74
2023/06/01 09:17:10;;;;;;;;;;;;;;;;;;5005801;28;19916;-74
2023/06/01 09:19:36;;;;;;;;;;;;;;;;;;5006025;28;19926;-76
2023/06/01 09:22:02;;;;;;;;;;;;;;;;;;5006368;28;20099;-75
2023/06/01 09:24:28;;;;;;;;;;;;;;;;;;5003569;28;19916;-72
2023/06/01 09:26:54;;;;;;;;;;;;;;;;;;5005542;28;19952;-67
2023/06/01 09:29:20;;;;;;;;;;;;;;;;;;5000351;28;20425;-67
2023/06/01 09:31:46;;;;;;;;;;;;;;;;;;5004863;28;19917;-67
2023/06/01 09:34:15;;;;;;;;;;;;;;;;;;5002787;28;19917;-68
2023/06/01 09:36:41;;;;;;;;;;;;;;;;;;5005371;28;19979;-66
2023/06/01 09:39:07;;;;;;;;;;;;;;;;;;5003865;28;19948;-67
2023/06/01 09:41:33;;;;;;;;;;;;;;;;;;5010377;28;20519;-67
2023/06/01 09:43:59;;;;;;;;;;;;;;;;;;5003887;28;19925;-67
2023/06/01 09:46:25;;;;;;;;;;;;;;;;;;5003261;28;20372;-67
2023/06/01 09:48:51;;;;;;;;;;;;;;;;;;5003143;28;20293;-67
2023/06/01 09:51:17;;;;;;;;;;;;;;;;;;5003045;28;19920;-67
2023/06/01 09:53:43;;;;;;;;;;;;;;;;;;5005205;28;19923;-67
2023/06/01 09:56:09;;;;;;;;;;;;;;;;;;5002360;28;19970;-68
2023/06/01 09:58:39;;;;;;;;;;;;;;;;;;5010573;28;20482;-68
2023/06/01 10:01:08;;;;;;;;;;;;;;;;;;5009537;28;19982;-68
2023/06/01 10:03:34;;;;;;;;;;;;;;;;;;5008170;28;19913;-67
2023/06/01 10:06:00;;;;;;;;;;;;;;;;;;5007946;28;19917;-67
2023/06/01 10:08:26;;;;;;;;;;;;;;;;;;5005505;28;19912;-67
2023/06/01 10:10:52;;;;;;;;;;;;;;;;;;5008186;28;19982;-69
2023/06/01 10:13:22;;;;;;;;;;;;;;;;;;5005613;28;20422;-68
2023/06/01 10:15:48;;;;;;;;;;;;;;;;;;5011032;28;20451;-69
2023/06/01 10:18:15;;;;;;;;;;;;;;;;;;5006227;28;20335;-68
2023/06/01 10:20:41;;;;;;;;;;;;;;;;;;5008336;28;20004;-70
2023/06/01 10:23:07;;;;;;;;;;;;;;;;;;5011960;28;20391;-69
2023/06/01 10:25:33;;;;;;;;;;;;;;;;;;5007439;28;19913;-69
2023/06/01 10:27:59;;;;;;;;;;;;;;;;;;5010399;28;20347;-69
2023/06/01 10:30:25;;;;;;;;;;;;;;;;;;5004782;28;20435;-69
2023/06/01 10:32:53;;;;;;;;;;;;;;;;;;5006218;28;19921;-69
2023/06/01 10:35:19;;;;;;;;;;;;;;;;;;5005699;28;19982;-69
2023/06/01 10:37:45;;;;;;;;;;;;;;;;;;5009400;28;20383;-68
2023/06/01 10:40:11;;;;;;;;;;;;;;;;;;5007758;28;20316;-69
2023/06/01 10:42:37;;;;;;;;;;;;;;;;;;5011132;28;20394;-68
2023/06/01 10:45:03;;;;;;;;;;;;;;;;;;5010132;28;19917;-69
2023/06/01 10:47:29;;;;;;;;;;;;;;;;;;5004568;28;19919;-70
2023/06/01 10:49:55;;;;;;;;;;;;;;;;;;5007359;28;19997;-70
2023/06/01 10:52:21;;;;;;;;;;;;;;;;;;5007248;28;19948;-70
2023/06/01 10:54:47;;;;;;;;;;;;;;;;;;5009027;28;20471;-70
2023/06/01 10:57:13;;;;;;;;;;;;;;;;;;5004621;28;19917;-70
2023/06/01 10:59:39;;;;;;;;;;;;;;;;;;5005728;28;20316;-69
2023/06/01 11:02:05;;;;;;;;;;;;;;;;;;5007754;28;19913;-70
2023/06/01 11:04:31;;;;;;;;;;;;;;;;;;5006131;28;19917;-70
2023/06/01 11:06:57;;;;;;;;;;;;;;;;;;5007673;28;20235;-70
2023/06/01 11:09:23;;;;;;;;;;;;;;;;;;5007594;28;19920;-70
2023/06/01 11:11:54;;;;;;;;;;;;;;;;;;5004786;28;20255;-70
2023/06/01 11:14:23;;;;;;;;;;;;;;;;;;5006972;28;19928;-69
2023/06/01 11:16:50;;;;;;;;;;;;;;;;;;5010732;28;20122;-69
2023/06/01 11:19:16;;;;;;;;;;;;;;;;;;5004439;28;19960;-70
2023/06/01 11:21:46;;;;;;;;;;;;;;;;;;5003694;28;20197;-69
2023/06/01 11:24:12;;;;;;;;;;;;;;;;;;5003152;28;20000;-70
2023/06/01 11:26:38;;;;;;;;;;;;;;;;;;5008412;28;20105;-70
2023/06/01 11:29:04;;;;;;;;;;;;;;;;;;5005501;28;19947;-70
2023/06/01 11:31:30;;;;;;;;;;;;;;;;;;5002205;28;20562;-69
2023/06/01 11:33:58;;;;;;;;;;;;;;;;;;5010011;28;19982;-69
2023/06/01 11:36:24;;;;;;;;;;;;;;;;;;5007059;28;20277;-69
2023/06/01 11:38:50;;;;;;;;;;;;;;;;;;5008094;28;19924;-69
2023/06/01 11:41:16;;;;;;;;;;;;;;;;;;5003578;28;19913;-69
2023/06/01 11:43:43;;;;;;;;;;;;;;;;;;5004067;28;19945;-69
2023/06/01 11:46:12;;;;;;;;;;;;;;;;;;5003989;28;20155;-69
2023/06/01 11:48:38;;;;;;;;;;;;;;;;;;5006965;28;20572;-70
2023/06/01 11:51:04;;;;;;;;;;;;;;;;;;5007428;28;19959;-69
2023/06/01 11:53:33;;;;;;;;;;;;;;;;;;5002992;28;19927;-68
2023/06/01 11:55:59;;;;;;;;;;;;;;;;;;5005807;28;19917;-71
2023/06/01 11:58:25;;;;;;;;;;;;;;;;;;5001236;28;20304;-71
2023/06/01 12:00:51;;;;;;;;;;;;;;;;;;5007272;28;19916;-71
2023/06/01 12:03:17;;;;;;;;;;;;;;;;;;5003407;28;20103;-71
2023/06/01 12:05:49;;;;;;;;;;;;;;;;;;5007551;28;19909;-71
2023/06/01 12:08:15;;;;;;;;;;;;;;;;;;5001911;28;19913;-71
2023/06/01 12:10:42;;;;;;;;;;;;;;;;;;5005021;28;20366;-70
2023/06/01 12:13:08;;;;;;;;;;;;;;;;;;5002926;28;19917;-70
2023/06/01 12:15:34;;;;;;;;;;;;;;;;;;5009755;28;19913;-71
2023/06/01 12:18:00;;;;;;;;;;;;;;;;;;5009934;28;20451;-68
2023/06/01 12:20:26;;;;;;;;;;;;;;;;;;5000758;28;19917;-69
2023/06/01 12:22:55;;;;;;;;;;;;;;;;;;5005590;28;19912;-68
2023/06/01 12:25:21;;;;;;;;;;;;;;;;;;5005238;28;20248;-69
2023/06/01 12:27:46;;;;;;;;;;;;;;;;;;5005419;28;19991;-71
2023/06/01 12:30:12;;;;;;;;;;;;;;;;;;5004728;28;20678;-68
2023/06/01 12:32:39;;;;;;;;;;;;;;;;;;5005142;28;19924;-68
2023/06/01 12:35:06;;;;;;;;;;;;;;;;;;5008867;28;19919;-69
2023/06/01 12:37:34;;;;;;;;;;;;;;;;;;5007145;28;19951;-68
2023/06/01 12:40:00;;;;;;;;;;;;;;;;;;5004160;28;20039;-69
2023/06/01 12:42:26;;;;;;;;;;;;;;;;;;5003828;28;20432;-69
2023/06/01 12:44:52;;;;;;;;;;;;;;;;;;5007224;28;20532;-69
2023/06/01 12:47:21;;;;;;;;;;;;;;;;;;5001849;28;19917;-69
2023/06/01 12:49:47;;;;;;;;;;;;;;;;;;5004695;28;19924;-69
2023/06/01 12:52:13;;;;;;;;;;;;;;;;;;5002473;28;19920;-69
2023/06/01 12:54:40;;;;;;;;;;;;;;;;;;5009769;28;20375;-69
2023/06/01 12:57:05;;;;;;;;;;;;;;;;;;5003444;28;19916;-69
2023/06/01 12:59:31;;;;;;;;;;;;;;;;;;5002986;28;19913;-69
2023/06/01 13:01:57;;;;;;;;;;;;;;;;;;5006311;28;19987;-69
2023/06/01 13:04:24;;;;;;;;;;;;;;;;;;5002685;28;20000;-69
2023/06/01 13:06:50;;;;;;;;;;;;;;;;;;5004221;28;20276;-69
2023/06/01 13:09:17;;;;;;;;;;;;;;;;;;5003923;28;19917;-69
2023/06/01 13:11:43;;;;;;;;;;;;;;;;;;5004631;28;20031;-69
2023/06/01 13:14:10;;;;;;;;;;;;;;;;;;5001760;28;20429;-69
2023/06/01 13:16:36;;;;;;;;;;;;;;;;;;5003104;28;19996;-69
2023/06/01 13:19:03;;;;;;;;;;;;;;;;;;5004214;28;20230;-69
2023/06/01 13:21:30;;;;;;;;;;;;;;;;;;4999131;28;20267;-69
2023/06/01 13:23:57;;;;;;;;;;;;;;;;;;5004439;28;20475;-69
2023/06/01 13:26:25;;;;;;;;;;;;;;;;;;4996792;28;19912;-69
2023/06/01 13:28:53;;;;;;;;;;;;;;;;;;5004592;28;20042;-69
2023/06/01 13:31:19;;;;;;;;;;;;;;;;;;4999500;28;19913;-69
2023/06/01 13:33:45;;;;;;;;;;;;;;;;;;5004455;28;19974;-69
2023/06/01 13:36:11;;;;;;;;;;;;;;;;;;5002524;28;20323;-70
2023/06/01 13:38:37;;;;;;;;;;;;;;;;;;5003670;28;20657;-69
2023/06/01 13:41:03;;;;;;;;;;;;;;;;;;5004745;28;19920;-69
2023/06/01 13:43:29;;;;;;;;;;;;;;;;;;5003783;28;19924;-69
2023/06/01 13:45:55;;;;;;;;;;;;;;;;;;5005292;28;19917;-69
2023/06/01 13:48:22;;;;;;;;;;;;;;;;;;5002065;28;19994;-69
2023/06/01 13:50:48;;;;;;;;;;;;;;;;;;5003550;28;20319;-69
2023/06/01 13:53:14;;;;;;;;;;;;;;;;;;5000057;28;19928;-69
2023/06/01 13:55:40;;;;;;;;;;;;;;;;;;5006606;28;19990;-70
2023/06/01 13:58:06;;;;;;;;;;;;;;;;;;5004423;28;19916;-70
2023/06/01 14:00:32;;;;;;;;;;;;;;;;;;5003837;28;19913;-70
2023/06/01 14:02:58;;;;;;;;;;;;;;;;;;5005629;28;19912;-70
2023/06/01 14:05:25;;;;;;;;;;;;;;;;;;4999859;28;19913;-68
2023/06/01 14:07:50;;;;;;;;;;;;;;;;;;5005082;28;19994;-69
2023/06/01 14:10:17;;;;;;;;;;;;;;;;;;5000771;28;19921;-69
2023/06/01 14:12:43;;;;;;;;;;;;;;;;;;5003897;28;19917;-69
2023/06/01 14:15:09;;;;;;;;;;;;;;;;;;5000312;28;20346;-69
2023/06/01 14:17:35;;;;;;;;;;;;;;;;;;5005582;28;20277;-69
2023/06/01 14:20:01;;;;;;;;;;;;;;;;;;5005458;28;19932;-69
2023/06/01 14:22:27;;;;;;;;;;;;;;;;;;5001330;28;20439;-68
2023/06/01 14:24:53;;;;;;;;;;;;;;;;;;5004190;28;19912;-69
2023/06/01 14:27:19;;;;;;;;;;;;;;;;;;5002018;28;20271;-67
2023/06/01 14:29:46;;;;;;;;;;;;;;;;;;5002800;28;19913;-69
2023/06/01 14:32:12;;;;;;;;;;;;;;;;;;4999923;28;20344;-69
2023/06/01 14:34:38;;;;;;;;;;;;;;;;;;5009238;28;19913;-69
2023/06/01 14:37:06;;;;;;;;;;;;;;;;;;5006112;28;19913;-69
2023/06/01 14:39:32;;;;;;;;;;;;;;;;;;5005247;28;20027;-69
2023/06/01 14:41:58;;;;;;;;;;;;;;;;;;5010561;28;20027;-70
2023/06/01 14:44:24;;;;;;;;;;;;;;;;;;5006195;28;19966;-70
2023/06/01 14:46:50;;;;;;;;;;;;;;;;;;5008210;28;19919;-70
2023/06/01 14:49:16;;;;;;;;;;;;;;;;;;5007891;28;20154;-69
2023/06/01 14:51:42;;;;;;;;;;;;;;;;;;5005448;28;20012;-69
2023/06/01 14:54:08;;;;;;;;;;;;;;;;;;5011351;28;19920;-69
2023/06/01 14:56:34;;;;;;;;;;;;;;;;;;5007100;28;20482;-69
2023/06/01 14:59:00;;;;;;;;;;;;;;;;;;5009554;28;20241;-69
2023/06/01 15:01:26;;;;;;;;;;;;;;;;;;5003613;28;19920;-69
2023/06/01 15:03:52;;;;;;;;;;;;;;;;;;5007336;28;19913;-68
2023/06/01 15:06:18;;;;;;;;;;;;;;;;;;5005949;28;19912;-68
2023/06/01 15:08:44;;;;;;;;;;;;;;;;;;5006762;28;20020;-68
2023/06/01 15:11:10;;;;;;;;;;;;;;;;;;5008252;28;19916;-70
2023/06/01 15:13:37;;;;;;;;;;;;;;;;;;5008309;28;19975;-69
2023/06/01 15:16:03;;;;;;;;;;;;;;;;;;5006439;28;19913;-70
2023/06/01 15:18:29;;;;;;;;;;;;;;;;;;5007183;28;20499;-69
2023/06/01 15:20:57;;;;;;;;;;;;;;;;;;5006715;28;20023;-69
2023/06/01 15:23:23;;;;;;;;;;;;;;;;;;5006279;28;20889;-69
2023/06/01 15:25:49;;;;;;;;;;;;;;;;;;5008487;28;20279;-69
2023/06/01 15:28:15;;;;;;;;;;;;;;;;;;5006868;28;19922;-70
2023/06/01 15:30:41;;;;;;;;;;;;;;;;;;5015852;28;20091;-69
2023/06/01 15:33:07;;;;;;;;;;;;;;;;;;5008297;28;20318;-69
2023/06/01 15:35:33;;;;;;;;;;;;;;;;;;5004280;28;19913;-69
2023/06/01 15:37:59;;;;;;;;;;;;;;;;;;5007296;28;20393;-69
2023/06/01 15:40:25;;;;;;;;;;;;;;;;;;5007606;28;19913;-69
2023/06/01 15:42:51;;;;;;;;;;;;;;;;;;5010154;28;19916;-69
2023/06/01 15:45:17;;;;;;;;;;;;;;;;;;5006265;28;20278;-69
2023/06/01 15:47:43;;;;;;;;;;;;;;;;;;5008258;28;19970;-69
2023/06/01 15:50:09;;;;;;;;;;;;;;;;;;5004367;28;19916;-69
2023/06/01 15:52:35;;;;;;;;;;;;;;;;;;5009582;28;20370;-69
2023/06/01 15:55:01;;;;;;;;;;;;;;;;;;5007095;28;20039;-69
2023/06/01 15:57:27;;;;;;;;;;;;;;;;;;5003945;28;19966;-69
2023/06/01 15:59:53;;;;;;;;;;;;;;;;;;5006341;28;20472;-68
2023/06/01 16:02:19;;;;;;;;;;;;;;;;;;5003614;28;19917;-68
2023/06/01 16:04:45;;;;;;;;;;;;;;;;;;5008079;28;20534;-70
2023/06/01 16:07:11;;;;;;;;;;;;;;;;;;5003853;28;19923;-69
2023/06/01 16:09:37;;;;;;;;;;;;;;;;;;5008473;28;20233;-69
2023/06/01 16:12:03;;;;;;;;;;;;;;;;;;5004480;28;20387;-69
2023/06/01 16:14:29;;;;;;;;;;;;;;;;;;5002435;28;20016;-69
2023/06/01 16:16:55;;;;;;;;;;;;;;;;;;5004477;28;20417;-68
2023/06/01 16:19:21;;;;;;;;;;;;;;;;;;5006078;28;19917;-68
2023/06/01 16:21:47;;;;;;;;;;;;;;;;;;5005384;28;19919;-68
2023/06/01 16:24:13;;;;;;;;;;;;;;;;;;5003983;28;19970;-69
2023/06/01 16:26:40;;;;;;;;;;;;;;;;;;5007242;28;19917;-70
2023/06/01 16:29:06;;;;;;;;;;;;;;;;;;5006894;28;19917;-69
2023/06/01 16:31:32;;;;;;;;;;;;;;;;;;5003217;28;19912;-69
2023/06/01 16:33:58;;;;;;;;;;;;;;;;;;5004547;28;19921;-69
2023/06/01 16:36:24;;;;;;;;;;;;;;;;;;5004265;28;20367;-69
2023/06/01 16:38:50;;;;;;;;;;;;;;;;;;5008441;28;20204;-69